Time;durP1;ratioP1;P1;durP2;ratioP2;P2;SDS_P1;SDS_P2;PMS_P1;PMS_P2;Temp;Humidity;BMP_temperature;BMP_pressure;BME280_temperature;BME280_humidity;BME280_pressure;Samples;Min_cycle;Max_cycle;Signal;HPM_P1;HPM_P2
2023/08/11 00:01:29;;;;;;;0.82;0.60;;;19.20;99.90;;;;;;5025051;28;20464;-74
2023/08/11 00:03:56;;;;;;;1.08;0.75;;;19.20;99.90;;;;;;5022126;28;20443;-74
2023/08/11 00:06:23;;;;;;;0.95;0.40;;;19.20;99.90;;;;;;5022437;28;20049;-75
2023/08/11 00:08:50;;;;;;;0.50;0.45;;;19.20;99.90;;;;;;5040206;28;20053;-74
2023/08/11 00:11:18;;;;;;;1.08;0.80;;;19.20;99.90;;;;;;5023456;28;20488;-74
2023/08/11 00:13:45;;;;;;;0.75;0.60;;;19.20;99.90;;;;;;5037750;28;20049;-74
2023/08/11 00:16:12;;;;;;;0.85;0.77;;;19.20;99.90;;;;;;5041914;28;20060;-75
2023/08/11 00:18:40;;;;;;;0.57;0.50;;;19.10;99.90;;;;;;5025082;28;20600;-75
2023/08/11 00:21:07;;;;;;;0.43;0.43;;;19.10;99.90;;;;;;5041227;28;20124;-74
2023/08/11 00:23:39;;;;;;;0.40;0.40;;;19.10;99.90;;;;;;5021169;28;20501;-75
2023/08/11 00:26:06;;;;;;;0.63;0.50;;;19.10;99.90;;;;;;5031702;28;20489;-74
2023/08/11 00:28:33;;;;;;;1.00;0.60;;;19.10;99.90;;;;;;5041838;28;20048;-75
2023/08/11 00:31:00;;;;;;;0.60;0.40;;;19.10;99.90;;;;;;5040883;28;20081;-74
2023/08/11 00:33:26;;;;;;;0.93;0.52;;;19.10;99.90;;;;;;5041214;28;20140;-74
2023/08/11 00:35:54;;;;;;;0.75;0.75;;;19.00;99.90;;;;;;5032462;28;20064;-75
2023/08/11 00:38:24;;;;;;;0.80;0.70;;;19.00;1.00;;;;;;5042886;28;20132;-75
2023/08/11 00:40:51;;;;;;;0.38;0.38;;;19.00;1.00;;;;;;5023256;28;20053;-75
2023/08/11 00:43:18;;;;;;;0.60;0.50;;;19.00;1.00;;;;;;5041048;28;20061;-75
2023/08/11 00:45:45;;;;;;;0.93;0.60;;;19.00;24.80;;;;;;5040861;28;20163;-74
2023/08/11 00:48:12;;;;;;;0.90;0.60;;;18.90;89.00;;;;;;5031165;28;20049;-74
2023/08/11 00:50:39;;;;;;;0.88;0.65;;;18.90;99.90;;;;;;5004501;28;20155;-74
2023/08/11 00:53:07;;;;;;;0.55;0.52;;;18.90;99.90;;;;;;5016390;28;20452;-75
2023/08/11 00:55:34;;;;;;;0.45;0.45;;;19.00;99.90;;;;;;5038253;28;20691;-74
2023/08/11 00:58:01;;;;;;;1.02;0.68;;;19.00;99.90;;;;;;5005446;28;20084;-75
2023/08/11 01:00:28;;;;;;;0.90;0.60;;;19.00;99.90;;;;;;5027227;28;20127;-74
2023/08/11 01:02:55;;;;;;;0.57;0.50;;;19.00;99.90;;;;;;5014002;28;20055;-75
2023/08/11 01:05:21;;;;;;;0.40;0.40;;;18.90;99.90;;;;;;5023299;28;20104;-75
2023/08/11 01:07:57;;;;;;;0.70;0.55;;;19.00;99.90;;;;;;5042280;28;20045;-74
2023/08/11 01:10:35;;;;;;;0.40;0.40;;;19.00;99.90;;;;;;5023415;28;20052;-75
2023/08/11 01:13:14;;;;;;;0.70;0.50;;;19.00;1.00;;;;;;5040305;28;20045;-74
2023/08/11 01:15:41;;;;;;;0.93;0.50;;;18.90;1.00;;;;;;5040541;28;20049;-75
2023/08/11 01:18:08;;;;;;;0.50;0.45;;;18.90;1.00;;;;;;5040729;28;20246;-74
2023/08/11 01:20:35;;;;;;;0.68;0.50;;;18.90;1.00;;;;;;5003798;28;20053;-75
2023/08/11 01:23:02;;;;;;;1.02;0.63;;;18.90;1.00;;;;;;5022702;28;20050;-75
2023/08/11 01:25:29;;;;;;;0.73;0.57;;;18.90;1.00;;;;;;5017193;28;20046;-74
2023/08/11 01:27:56;;;;;;;0.95;0.52;;;18.90;1.00;;;;;;5007903;28;20150;-75
2023/08/11 01:30:26;;;;;;;1.05;0.70;;;18.80;57.30;;;;;;5044390;28;20681;-75
2023/08/11 01:32:53;;;;;;;0.50;0.50;;;18.80;99.90;;;;;;5027461;28;20473;-75
2023/08/11 01:35:20;;;;;;;0.55;0.40;;;18.80;99.90;;;;;;5047263;28;20088;-75
2023/08/11 01:38:06;;;;;;;0.98;0.73;;;18.70;99.90;;;;;;5035989;28;20050;-74
2023/08/11 01:40:33;;;;;;;0.38;0.38;;;18.70;99.90;;;;;;5025354;28;20568;-74
2023/08/11 01:43:01;;;;;;;0.70;0.60;;;18.70;99.90;;;;;;5044380;28;20049;-74
2023/08/11 01:45:28;;;;;;;0.60;0.50;;;18.60;99.90;;;;;;5045802;28;20052;-74
2023/08/11 01:47:55;;;;;;;1.67;0.80;;;18.60;99.90;;;;;;5030273;28;20110;-74
2023/08/11 01:50:22;;;;;;;0.88;0.60;;;18.50;99.90;;;;;;5018016;28;20049;-74
2023/08/11 01:52:49;;;;;;;0.70;0.60;;;18.40;99.90;;;;;;5016963;28;20438;-75
2023/08/11 01:55:16;;;;;;;0.80;0.70;;;18.40;1.00;;;;;;5044936;28;20041;-74
2023/08/11 01:57:43;;;;;;;0.82;0.52;;;18.40;1.00;;;;;;5045967;28;20133;-74
2023/08/11 02:00:22;;;;;;;0.40;0.40;;;18.40;1.00;;;;;;5031208;28;20120;-74
2023/08/11 02:02:49;;;;;;;0.90;0.60;;;18.40;99.90;;;;;;5045675;28;20048;-75
2023/08/11 02:05:16;;;;;;;1.42;0.70;;;18.50;91.10;;;;;;5044362;28;20479;-75
2023/08/11 02:07:43;;;;;;;1.50;0.80;;;18.50;99.90;;;;;;5026283;28;20094;-75
2023/08/11 02:10:10;;;;;;;1.23;0.60;;;18.50;99.90;;;;;;5042715;28;20052;-75
2023/08/11 02:12:36;;;;;;;1.45;0.80;;;18.50;99.90;;;;;;5045311;28;20621;-73
2023/08/11 02:15:07;;;;;;;1.30;0.80;;;18.50;99.90;;;;;;5029046;28;20056;-73
2023/08/11 02:17:34;;;;;;;0.90;0.70;;;18.50;1.00;;;;;;5010825;28;20049;-73
2023/08/11 02:20:12;;;;;;;0.73;0.50;;;18.50;1.00;;;;;;5019302;28;20530;-74
2023/08/11 02:22:39;;;;;;;0.98;0.57;;;18.50;99.90;;;;;;5045409;28;20041;-73
2023/08/11 02:25:06;;;;;;;1.20;0.77;;;18.50;99.90;;;;;;5043371;28;20048;-73
2023/08/11 02:27:33;;;;;;;0.73;0.63;;;18.50;99.90;;;;;;5012715;28;20107;-73
2023/08/11 02:29:59;;;;;;;1.33;0.75;;;18.50;99.90;;;;;;5045319;28;20452;-74
2023/08/11 02:32:26;;;;;;;1.63;0.60;;;18.50;1.00;;;;;;5045304;28;20080;-74
2023/08/11 02:34:53;;;;;;;1.30;0.73;;;18.60;1.00;;;;;;5046252;28;20303;-73
2023/08/11 02:37:20;;;;;;;1.77;0.60;;;18.70;1.00;;;;;;5015879;28;20374;-73
2023/08/11 02:39:46;;;;;;;1.17;0.80;;;18.80;1.00;;;;;;5032437;28;20053;-73
2023/08/11 02:42:13;;;;;;;0.60;0.50;;;18.90;1.00;;;;;;5046342;28;20203;-74
2023/08/11 02:44:40;;;;;;;1.17;0.60;;;18.90;1.00;;;;;;5046092;28;20044;-74
2023/08/11 02:47:07;;;;;;;0.50;0.40;;;19.00;1.00;;;;;;5046536;28;20057;-74
2023/08/11 02:49:34;;;;;;;1.23;0.50;;;19.00;1.00;;;;;;5044481;28;20045;-73
2023/08/11 02:52:01;;;;;;;1.05;0.50;;;19.10;1.00;;;;;;5046623;28;20507;-73
2023/08/11 02:54:28;;;;;;;1.05;0.60;;;19.10;1.00;;;;;;5043332;28;20471;-74
2023/08/11 02:56:55;;;;;;;2.20;0.93;;;19.10;6.10;;;;;;5011493;28;20518;-74
2023/08/11 02:59:22;;;;;;;1.40;0.80;;;19.10;99.90;;;;;;5045902;28;20056;-74
2023/08/11 03:01:48;;;;;;;1.73;0.60;;;19.10;99.90;;;;;;5044652;28;20106;-74
2023/08/11 03:04:18;;;;;;;1.73;0.77;;;19.10;99.90;;;;;;5027479;28;20053;-74
2023/08/11 03:06:47;;;;;;;1.02;0.57;;;19.20;99.90;;;;;;5044520;28;20397;-74
2023/08/11 03:09:14;;;;;;;1.08;0.60;;;19.20;99.90;;;;;;5046177;28;20094;-74
2023/08/11 03:11:41;;;;;;;0.90;0.60;;;19.20;99.90;;;;;;5023388;28;20053;-74
2023/08/11 03:14:07;;;;;;;1.48;0.63;;;19.20;99.90;;;;;;5024517;28;20056;-74
2023/08/11 03:16:35;;;;;;;1.13;0.60;;;19.20;99.90;;;;;;5039903;28;20134;-74
2023/08/11 03:19:02;;;;;;;1.08;0.50;;;19.30;99.90;;;;;;5044496;28;20060;-74
2023/08/11 03:21:29;;;;;;;1.08;0.60;;;19.20;99.90;;;;;;5037308;28;20045;-74
2023/08/11 03:23:56;;;;;;;1.77;0.77;;;19.20;1.00;;;;;;5052149;28;20537;-75
2023/08/11 03:26:23;;;;;;;1.23;0.70;;;19.20;1.00;;;;;;5051970;28;20049;-75
2023/08/11 03:28:50;;;;;;;1.60;0.75;;;19.20;99.90;;;;;;5031558;28;20044;-74
2023/08/11 03:31:16;;;;;;;1.27;0.65;;;19.20;99.90;;;;;;5040109;28;20113;-75
2023/08/11 03:33:43;;;;;;;0.90;0.57;;;19.30;99.90;;;;;;5053469;28;20612;-75
2023/08/11 03:36:10;;;;;;;1.85;0.90;;;19.30;99.90;;;;;;5051197;28;20582;-75
2023/08/11 03:38:37;;;;;;;1.70;0.77;;;19.30;1.00;;;;;;5045643;28;20133;-76
2023/08/11 03:41:04;;;;;;;1.50;0.70;;;19.30;1.00;;;;;;5022458;28;20053;-76
2023/08/11 03:43:30;;;;;;;1.40;0.80;;;19.30;1.00;;;;;;5045468;28;20055;-76
2023/08/11 03:45:57;;;;;;;1.67;0.70;;;19.30;1.00;;;;;;5045119;28;20498;-76
2023/08/11 03:48:24;;;;;;;0.73;0.40;;;19.30;61.90;;;;;;5045872;28;20052;-76
2023/08/11 03:50:51;;;;;;;1.55;0.70;;;19.40;64.10;;;;;;5040079;28;20040;-75
2023/08/11 03:53:18;;;;;;;0.73;0.40;;;19.40;89.70;;;;;;5029354;28;20136;-76
2023/08/11 03:55:45;;;;;;;1.55;0.75;;;19.40;99.90;;;;;;5040200;28;20084;-75
2023/08/11 03:58:14;;;;;;;1.00;0.70;;;19.40;99.90;;;;;;5041185;28;20119;-76
2023/08/11 04:00:41;;;;;;;0.90;0.40;;;19.50;99.90;;;;;;5022980;28;20087;-76
2023/08/11 04:03:09;;;;;;;0.88;0.60;;;19.50;99.90;;;;;;5043786;28;20076;-77
2023/08/11 04:05:36;;;;;;;1.80;0.50;;;19.50;99.90;;;;;;5042522;28;20218;-77
2023/08/11 04:08:06;;;;;;;1.13;0.68;;;19.50;99.90;;;;;;5044307;28;20222;-76
2023/08/11 04:10:35;;;;;;;0.70;0.50;;;19.40;99.90;;;;;;5043471;28;20098;-77
2023/08/11 04:13:01;;;;;;;1.23;0.60;;;19.40;99.90;;;;;;5009021;28;20072;-76
2023/08/11 04:15:29;;;;;;;2.30;1.00;;;19.50;99.90;;;;;;5024311;28;20057;-76
2023/08/11 04:17:56;;;;;;;2.25;0.68;;;19.50;99.90;;;;;;5058836;28;20498;-76
2023/08/11 04:20:23;;;;;;;1.40;0.70;;;19.50;1.00;;;;;;5043968;28;20647;-76
2023/08/11 04:22:50;;;;;;;1.48;0.80;;;19.50;1.00;;;;;;5006306;28;20087;-75
2023/08/11 04:25:17;;;;;;;1.63;0.88;;;19.50;1.00;;;;;;5041923;28;20060;-77
2023/08/11 04:27:43;;;;;;;1.20;0.75;;;19.50;99.90;;;;;;5043503;28;20107;-76
2023/08/11 04:30:12;;;;;;;0.73;0.60;;;19.40;99.90;;;;;;5044765;28;20048;-77
2023/08/11 04:32:39;;;;;;;0.90;0.65;;;19.50;99.90;;;;;;5027023;28;20358;-76
2023/08/11 04:35:07;;;;;;;1.65;0.70;;;19.50;99.90;;;;;;5026141;28;20049;-76
2023/08/11 04:37:34;;;;;;;1.48;0.80;;;19.50;99.90;;;;;;5043417;28;20119;-76
2023/08/11 04:40:05;;;;;;;1.50;0.98;;;19.50;99.90;;;;;;5025802;28;20044;-76
2023/08/11 04:42:32;;;;;;;1.10;0.60;;;19.50;99.90;;;;;;5043195;28;20053;-76
2023/08/11 04:44:59;;;;;;;1.50;0.65;;;19.50;99.90;;;;;;5043823;28;20060;-76
2023/08/11 04:47:26;;;;;;;1.35;0.63;;;19.50;99.90;;;;;;5043265;28;20496;-76
2023/08/11 04:49:53;;;;;;;0.88;0.45;;;19.50;99.90;;;;;;5042550;28;20041;-76
2023/08/11 04:52:19;;;;;;;1.52;0.73;;;19.50;99.90;;;;;;5040762;28;20041;-76
2023/08/11 04:54:46;;;;;;;1.77;0.55;;;19.60;99.90;;;;;;5041204;28;20539;-77
2023/08/11 04:57:13;;;;;;;1.55;0.77;;;19.60;99.90;;;;;;5042392;28;20057;-76
2023/08/11 04:59:40;;;;;;;1.40;0.70;;;19.60;99.90;;;;;;5044150;28;20052;-76
2023/08/11 05:02:07;;;;;;;1.35;0.70;;;19.60;99.90;;;;;;5042181;28;20048;-76
2023/08/11 05:04:34;;;;;;;0.90;0.65;;;19.60;99.90;;;;;;5038622;28;20055;-76
2023/08/11 05:07:01;;;;;;;1.27;0.80;;;19.60;99.90;;;;;;5040970;28;20044;-77
2023/08/11 05:09:28;;;;;;;0.65;0.50;;;19.60;99.90;;;;;;5041476;28;20558;-76
2023/08/11 05:11:55;;;;;;;0.45;0.40;;;19.70;99.90;;;;;;5042390;28;20125;-76
2023/08/11 05:14:22;;;;;;;1.40;0.68;;;19.60;99.90;;;;;;5041976;28;20095;-76
2023/08/11 05:16:49;;;;;;;1.42;0.68;;;19.60;99.90;;;;;;5042185;28;20048;-76
2023/08/11 05:19:16;;;;;;;0.82;0.50;;;19.60;99.90;;;;;;5040667;28;20060;-76
2023/08/11 05:21:43;;;;;;;0.77;0.40;;;19.60;99.90;;;;;;5041753;28;21522;-76
2023/08/11 05:24:12;;;;;;;0.40;0.32;;;19.70;99.90;;;;;;5024092;28;20053;-77
2023/08/11 05:26:39;;;;;;;0.50;0.50;;;19.70;99.90;;;;;;5039231;28;20186;-76
2023/08/11 05:29:06;;;;;;;0.45;0.40;;;19.70;99.90;;;;;;5057958;28;20048;-76
2023/08/11 05:31:36;;;;;;;0.40;0.38;;;19.70;99.90;;;;;;5042876;28;20056;-75
2023/08/11 05:34:03;;;;;;;0.32;0.32;;;19.70;99.90;;;;;;5039963;28;20037;-74
2023/08/11 05:36:31;;;;;;;0.35;0.20;;;19.70;99.90;;;;;;5022842;28;20107;-75
2023/08/11 05:38:57;;;;;;;0.75;0.50;;;19.80;99.90;;;;;;5021250;28;20096;-74
2023/08/11 05:41:24;;;;;;;1.90;0.30;;;19.80;99.90;;;;;;5034989;28;20459;-75
2023/08/11 05:43:51;;;;;;;0.60;0.40;;;19.80;99.90;;;;;;5003644;28;20064;-75
2023/08/11 05:46:18;;;;;;;0.63;0.50;;;19.80;99.90;;;;;;5027860;28;20053;-75
2023/08/11 05:48:48;;;;;;;0.68;0.40;;;19.90;99.90;;;;;;5036572;28;20182;-76
2023/08/11 05:51:16;;;;;;;0.82;0.50;;;19.90;99.90;;;;;;5041027;28;20064;-76
2023/08/11 05:53:42;;;;;;;0.80;0.60;;;20.00;46.50;;;;;;5023717;28;20416;-75
2023/08/11 05:56:09;;;;;;;0.30;0.30;;;20.00;1.00;;;;;;5021055;28;20110;-75
2023/08/11 05:58:36;;;;;;;0.80;0.30;;;20.10;1.00;;;;;;5034613;28;20413;-75
2023/08/11 06:01:03;;;;;;;1.92;0.40;;;20.20;1.00;;;;;;5031235;28;20052;-75
2023/08/11 06:03:30;;;;;;;1.25;0.50;;;20.20;99.90;;;;;;5039923;28;20584;-75
2023/08/11 06:06:01;;;;;;;0.45;0.40;;;20.20;99.90;;;;;;5039941;28;20053;-74
2023/08/11 06:08:28;;;;;;;0.85;0.57;;;20.20;99.90;;;;;;5040266;28;20057;-77
2023/08/11 06:10:55;;;;;;;0.93;0.40;;;20.20;99.90;;;;;;5015828;28;20554;-74
2023/08/11 06:13:22;;;;;;;2.00;0.65;;;20.20;99.90;;;;;;5041205;28;20048;-74
2023/08/11 06:15:49;;;;;;;1.60;1.00;;;20.20;1.00;;;;;;5043738;28;20049;-74
2023/08/11 06:18:17;;;;;;;1.15;0.70;;;20.20;1.00;;;;;;5043852;28;20222;-77
2023/08/11 06:20:44;;;;;;;1.77;0.80;;;20.30;1.00;;;;;;5031478;28;20104;-74
2023/08/11 06:23:12;;;;;;;0.60;0.57;;;20.40;1.00;;;;;;4996789;28;20084;-75
2023/08/11 06:25:39;;;;;;;0.98;0.60;;;20.50;99.90;;;;;;5039173;28;20076;-75
2023/08/11 06:28:07;;;;;;;1.02;0.70;;;20.60;99.90;;;;;;5018971;28;20052;-74
2023/08/11 06:30:34;;;;;;;1.17;0.63;;;20.60;81.40;;;;;;5047379;28;20122;-76
2023/08/11 06:33:01;;;;;;;1.05;0.70;;;20.50;1.00;;;;;;5008842;28;20063;-76
2023/08/11 06:35:27;;;;;;;2.05;1.17;;;20.40;99.90;;;;;;5015809;28;20041;-76
2023/08/11 06:37:54;;;;;;;1.38;0.80;;;20.20;99.90;;;;;;5042394;28;20048;-77
2023/08/11 06:40:21;;;;;;;1.08;0.70;;;20.20;99.90;;;;;;5024282;28;20060;-79
2023/08/11 06:42:48;;;;;;;1.88;0.90;;;20.20;60.80;;;;;;5020215;28;20507;-76
2023/08/11 06:45:15;;;;;;;3.10;1.15;;;20.20;47.00;;;;;;5043582;28;20072;-76
2023/08/11 06:47:42;;;;;;;0.75;0.60;;;20.20;1.00;;;;;;5039210;28;20979;-76
2023/08/11 06:50:09;;;;;;;1.20;0.80;;;20.20;99.90;;;;;;5043312;28;20040;-77
2023/08/11 06:52:39;;;;;;;0.98;0.50;;;20.30;99.90;;;;;;5043073;28;20111;-76
2023/08/11 06:55:06;;;;;;;1.27;0.70;;;20.20;99.90;;;;;;5026280;28;20050;-76
2023/08/11 06:57:33;;;;;;;1.55;0.75;;;20.30;99.90;;;;;;5043181;28;20065;-76
2023/08/11 07:00:00;;;;;;;1.30;0.70;;;20.40;99.90;;;;;;5044326;28;20052;-76
2023/08/11 07:02:27;;;;;;;1.25;0.60;;;20.50;99.90;;;;;;5012249;28;20136;-74
2023/08/11 07:04:54;;;;;;;0.70;0.50;;;20.60;27.80;;;;;;5004348;28;20084;-77
2023/08/11 07:07:20;;;;;;;2.20;0.90;;;20.60;99.90;;;;;;5039027;28;20128;-77
2023/08/11 07:09:47;;;;;;;2.30;0.85;;;20.60;99.90;;;;;;5022948;28;20087;-74
2023/08/11 07:12:14;;;;;;;1.20;0.75;;;20.60;1.00;;;;;;5025100;28;20140;-77
2023/08/11 07:14:42;;;;;;;1.30;0.70;;;20.50;99.90;;;;;;5037008;28;20492;-77
2023/08/11 07:17:09;;;;;;;1.80;0.60;;;20.50;99.90;;;;;;5042591;28;20057;-77
2023/08/11 07:19:36;;;;;;;1.15;0.50;;;20.50;99.90;;;;;;5042858;28;20121;-76
2023/08/11 07:22:04;;;;;;;1.33;0.50;;;20.50;99.90;;;;;;5034083;28;20354;-77
2023/08/11 07:24:31;;;;;;;1.38;0.60;;;20.50;99.90;;;;;;5029540;28;20049;-76
2023/08/11 07:26:57;;;;;;;1.27;0.60;;;20.60;1.00;;;;;;5026300;28;20049;-76
2023/08/11 07:29:24;;;;;;;1.23;0.40;;;20.80;99.90;;;;;;5023029;28;20045;-77
2023/08/11 07:31:51;;;;;;;0.30;0.30;;;21.00;99.90;;;;;;5008568;28;20492;-77
2023/08/11 07:34:18;;;;;;;0.65;0.40;;;21.10;1.00;;;;;;5037410;28;20132;-76
2023/08/11 07:36:44;;;;;;;0.63;0.38;;;21.10;99.90;;;;;;5040317;28;20072;-77
2023/08/11 07:39:12;;;;;;;1.40;0.60;;;21.10;99.90;;;;;;5041148;28;20682;-76
2023/08/11 07:41:52;;;;;;;0.82;0.47;;;21.10;99.90;;;;;;5042083;28;20124;-77
2023/08/11 07:44:19;;;;;;;1.13;0.52;;;21.20;99.90;;;;;;5030433;28;20045;-74
2023/08/11 07:46:46;;;;;;;0.40;0.40;;;21.20;37.20;;;;;;4990427;28;20057;-74
2023/08/11 07:49:13;;;;;;;1.52;0.85;;;21.20;55.10;;;;;;5027729;28;20049;-74
2023/08/11 07:51:40;;;;;;;0.68;0.45;;;21.20;58.90;;;;;;5042569;28;20061;-74
2023/08/11 07:54:08;;;;;;;0.73;0.40;;;21.30;34.70;;;;;;5026750;28;20099;-74
2023/08/11 07:56:35;;;;;;;1.02;0.50;;;21.40;1.00;;;;;;5028067;28;20494;-77
2023/08/11 07:59:02;;;;;;;0.52;0.25;;;21.50;1.00;;;;;;5024069;28;20049;-75
2023/08/11 08:01:29;;;;;;;1.00;0.40;;;21.60;99.90;;;;;;5022121;28;20049;-75
2023/08/11 08:03:56;;;;;;;0.52;0.30;;;21.60;99.90;;;;;;5032653;28;20055;-75
2023/08/11 08:06:24;;;;;;;0.50;0.35;;;21.70;99.90;;;;;;5025609;28;20053;-74
2023/08/11 08:08:51;;;;;;;0.50;0.40;;;22.00;99.90;;;;;;5035564;28;20500;-74
2023/08/11 08:11:19;;;;;;;1.38;0.52;;;22.10;99.90;;;;;;5021519;28;20057;-74
2023/08/11 08:13:46;;;;;;;1.08;0.60;;;22.10;99.90;;;;;;5035838;28;20464;-74
2023/08/11 08:16:12;;;;;;;1.25;0.60;;;22.10;99.90;;;;;;5041838;28;20048;-74
2023/08/11 08:18:39;;;;;;;1.40;0.75;;;22.00;99.90;;;;;;5033511;28;20044;-74
2023/08/11 08:21:06;;;;;;;0.93;0.68;;;22.00;99.90;;;;;;5027190;28;20124;-75
2023/08/11 08:23:33;;;;;;;1.92;0.47;;;22.10;99.90;;;;;;5039547;28;20045;-75
2023/08/11 08:26:00;;;;;;;1.35;0.70;;;22.00;99.90;;;;;;5032719;28;20107;-75
2023/08/11 08:28:26;;;;;;;0.85;0.50;;;22.10;99.90;;;;;;5042742;28;20049;-74
2023/08/11 08:30:53;;;;;;;0.75;0.47;;;22.20;99.90;;;;;;5036072;28;20068;-75
2023/08/11 08:33:20;;;;;;;1.35;0.65;;;22.30;99.90;;;;;;5035489;28;20052;-75
2023/08/11 08:35:47;;;;;;;2.45;0.65;;;22.30;99.90;;;;;;5028841;28;20095;-74
2023/08/11 08:38:14;;;;;;;1.17;0.65;;;22.40;99.90;;;;;;5024698;28;20099;-75
2023/08/11 08:40:40;;;;;;;1.17;0.80;;;22.40;99.90;;;;;;5037367;28;20136;-75
2023/08/11 08:43:08;;;;;;;1.17;0.63;;;22.50;99.90;;;;;;5035294;28;20041;-75
2023/08/11 08:45:35;;;;;;;1.05;0.55;;;22.50;99.90;;;;;;5038641;28;20107;-75
2023/08/11 08:48:06;;;;;;;1.20;0.50;;;22.60;99.90;;;;;;5025329;28;20488;-75
2023/08/11 08:50:33;;;;;;;1.80;0.75;;;22.60;99.90;;;;;;5039801;28;20540;-75
2023/08/11 08:53:01;;;;;;;2.50;0.95;;;22.50;99.90;;;;;;5022494;28;20045;-75
2023/08/11 08:55:27;;;;;;;1.15;0.70;;;22.50;99.90;;;;;;5039760;28;20127;-75
2023/08/11 08:57:55;;;;;;;2.25;0.98;;;22.40;99.90;;;;;;5037334;28;20049;-75
2023/08/11 09:00:23;;;;;;;2.00;0.80;;;22.50;99.90;;;;;;5037817;28;20474;-75
2023/08/11 09:02:49;;;;;;;2.53;0.90;;;22.60;99.90;;;;;;5040251;28;20088;-75
2023/08/11 09:05:16;;;;;;;0.75;0.55;;;22.60;99.90;;;;;;5025290;28;20051;-74
2023/08/11 09:07:43;;;;;;;1.67;0.95;;;22.60;99.90;;;;;;5040054;28;20221;-75
2023/08/11 09:10:10;;;;;;;1.58;0.90;;;22.70;99.90;;;;;;5038269;28;20052;-75
2023/08/11 09:12:37;;;;;;;1.13;0.60;;;22.70;99.90;;;;;;5019955;28;20104;-75
2023/08/11 09:15:08;;;;;;;1.65;0.73;;;22.70;99.90;;;;;;5039569;28;20045;-75
2023/08/11 09:17:37;;;;;;;1.70;0.73;;;22.80;99.90;;;;;;5039257;28;20057;-75
2023/08/11 09:20:06;;;;;;;1.33;0.90;;;23.00;99.90;;;;;;5013970;28;20053;-75
2023/08/11 09:22:36;;;;;;;1.05;0.70;;;22.90;99.90;;;;;;5005866;28;20925;-74
2023/08/11 09:25:03;;;;;;;1.17;0.70;;;22.90;99.90;;;;;;5016455;28;20070;-75
2023/08/11 09:27:31;;;;;;;1.30;0.80;;;22.90;99.90;;;;;;5035417;28;20049;-75
2023/08/11 09:29:58;;;;;;;2.15;0.80;;;22.90;99.90;;;;;;5038931;28;20045;-75
2023/08/11 09:32:24;;;;;;;0.73;0.60;;;22.90;99.90;;;;;;5020409;28;20124;-74
2023/08/11 09:34:53;;;;;;;0.98;0.88;;;22.80;99.90;;;;;;5037517;28;20629;-75
2023/08/11 09:37:19;;;;;;;1.40;0.80;;;23.00;99.90;;;;;;5041612;28;20055;-75
2023/08/11 09:39:49;;;;;;;1.55;0.80;;;22.90;99.90;;;;;;5023650;28;20894;-74
2023/08/11 09:42:18;;;;;;;1.45;0.82;;;22.90;99.90;;;;;;5038444;28;20051;-75
2023/08/11 09:44:44;;;;;;;0.77;0.55;;;22.90;99.90;;;;;;5025229;28;20045;-76
2023/08/11 09:47:11;;;;;;;2.47;0.80;;;22.90;99.90;;;;;;5008436;28;20632;-75
2023/08/11 09:49:48;;;;;;;2.42;1.30;;;23.00;99.90;;;;;;5020097;28;20664;-75
2023/08/11 09:52:15;;;;;;;3.17;1.42;;;23.10;99.90;;;;;;5019877;28;20284;-75
2023/08/11 09:54:43;;;;;;;2.40;1.23;;;23.00;99.90;;;;;;5013897;28;20044;-75
2023/08/11 09:57:11;;;;;;;2.40;1.48;;;23.10;99.90;;;;;;5009992;28;20159;-75
2023/08/11 09:59:38;;;;;;;1.73;1.17;;;23.20;99.90;;;;;;5036779;28;20073;-75
2023/08/11 10:02:05;;;;;;;1.13;1.02;;;23.50;99.90;;;;;;5026272;28;20061;-75
2023/08/11 10:04:37;;;;;;;2.63;1.08;;;23.70;99.90;;;;;;5029230;28;20048;-75
2023/08/11 10:07:09;;;;;;;1.98;1.02;;;23.80;99.20;;;;;;5042926;28;20048;-75
2023/08/11 10:09:36;;;;;;;2.58;1.02;;;24.00;99.90;;;;;;5052802;28;20090;-75
2023/08/11 10:12:03;;;;;;;1.30;1.20;;;24.20;97.60;;;;;;5024487;28;20064;-75
2023/08/11 10:14:30;;;;;;;0.82;0.65;;;24.30;93.80;;;;;;5032780;28;20055;-74
2023/08/11 10:16:56;;;;;;;1.50;1.10;;;24.40;92.00;;;;;;5033052;28;20099;-75
2023/08/11 10:19:23;;;;;;;1.95;1.10;;;24.40;92.80;;;;;;5041231;28;20053;-75
2023/08/11 10:21:50;;;;;;;1.52;0.98;;;24.40;91.70;;;;;;5044179;28;20245;-75
2023/08/11 10:24:17;;;;;;;2.40;1.25;;;24.30;86.50;;;;;;5044125;28;20118;-75
2023/08/11 10:26:43;;;;;;;1.95;1.10;;;24.20;82.60;;;;;;5026535;28;20045;-75
2023/08/11 10:29:11;;;;;;;1.92;0.98;;;24.20;89.60;;;;;;5044654;28;20076;-75
2023/08/11 10:31:58;;;;;;;1.75;0.98;;;24.40;87.30;;;;;;5043668;28;20171;-75
2023/08/11 10:34:25;;;;;;;1.35;0.88;;;24.50;83.70;;;;;;5023692;28;20107;-74
2023/08/11 10:36:58;;;;;;;1.17;0.98;;;24.80;84.20;;;;;;4991593;28;20085;-75
2023/08/11 10:39:26;;;;;;;1.00;0.80;;;25.00;83.40;;;;;;4991291;28;20152;-75
2023/08/11 10:41:54;;;;;;;1.33;0.70;;;25.30;81.30;;;;;;5023374;28;20398;-75
2023/08/11 10:44:27;;;;;;;1.60;0.90;;;25.60;75.40;;;;;;5016464;28;20049;-75
2023/08/11 10:46:54;;;;;;;;;;;25.90;75.00;;;;;;5043967;28;20052;-75
2023/08/11 10:49:33;;;;;;;2.20;1.00;;;26.30;73.10;;;;;;5027247;28;19958;-75
2023/08/11 10:52:01;;;;;;;1.25;0.70;;;26.50;67.30;;;;;;5043392;28;20056;-75
2023/08/11 10:54:28;;;;;;;1.05;0.60;;;26.50;63.20;;;;;;5042504;28;20053;-75
2023/08/11 10:56:56;;;;;;;1.23;0.77;;;26.40;57.90;;;;;;5043188;28;20060;-75
2023/08/11 10:59:24;;;;;;;1.20;0.60;;;26.40;58.90;;;;;;5026758;28;20052;-75
2023/08/11 11:01:53;;;;;;;1.42;0.90;;;26.60;60.10;;;;;;5043206;28;20045;-75
2023/08/11 11:04:21;;;;;;;0.90;0.60;;;26.60;57.70;;;;;;5042759;28;20500;-75
2023/08/11 11:06:50;;;;;;;1.58;1.00;;;26.50;54.40;;;;;;5042745;28;20041;-75
2023/08/11 11:09:17;;;;;;;1.33;0.85;;;26.30;49.10;;;;;;5043342;28;20133;-75
2023/08/11 11:11:48;;;;;;;1.45;0.80;;;26.20;49.60;;;;;;5042385;28;20049;-75
2023/08/11 11:14:15;;;;;;;1.48;1.00;;;26.20;47.70;;;;;;5044570;28;20421;-75
2023/08/11 11:16:42;;;;;;;1.45;0.82;;;26.30;48.40;;;;;;5043109;28;20083;-75
2023/08/11 11:19:09;;;;;;;2.08;0.80;;;26.50;49.50;;;;;;5044031;28;20048;-75
2023/08/11 11:21:38;;;;;;;1.45;0.77;;;26.70;49.60;;;;;;5042201;28;20045;-76
2023/08/11 11:24:05;;;;;;;1.52;0.70;;;26.80;50.80;;;;;;5031513;28;20044;-76
2023/08/11 11:26:32;;;;;;;0.98;0.63;;;26.60;46.10;;;;;;5022929;28;20135;-75
2023/08/11 11:29:00;;;;;;;1.65;0.80;;;26.60;45.30;;;;;;5041035;28;20121;-76
2023/08/11 11:31:32;;;;;;;1.80;0.68;;;26.80;46.00;;;;;;5040666;28;20518;-75
2023/08/11 11:33:58;;;;;;;1.90;0.77;;;26.90;44.00;;;;;;5042649;28;20475;-76
2023/08/11 11:36:25;;;;;;;1.30;0.70;;;27.10;45.50;;;;;;5040306;28;20048;-75
2023/08/11 11:38:52;;;;;;;1.58;0.63;;;27.10;45.10;;;;;;5013610;28;20438;-75
2023/08/11 11:41:19;;;;;;;2.08;0.82;;;27.20;45.30;;;;;;5038753;28;20136;-75
2023/08/11 11:43:47;;;;;;;1.02;0.60;;;27.10;42.30;;;;;;5021931;28;20049;-76
2023/08/11 11:46:15;;;;;;;1.30;0.75;;;26.70;41.50;;;;;;5039958;28;20049;-75
2023/08/11 11:48:47;;;;;;;0.65;0.40;;;26.50;39.50;;;;;;5042397;28;20131;-75
2023/08/11 11:51:15;;;;;;;1.13;0.60;;;26.50;40.70;;;;;;5040269;28;20449;-75
2023/08/11 11:53:42;;;;;;;2.03;0.88;;;26.60;42.50;;;;;;5043425;28;20110;-75
2023/08/11 11:56:14;;;;;;;1.13;0.80;;;26.70;51.80;;;;;;5036199;28;20103;-76
2023/08/11 11:58:43;;;;;;;1.33;0.80;;;26.80;42.10;;;;;;5026014;28;20044;-75
2023/08/11 12:01:11;;;;;;;1.40;0.90;;;27.10;41.90;;;;;;5043122;28;20111;-75
2023/08/11 12:03:38;;;;;;;0.60;0.57;;;27.20;40.60;;;;;;5043444;28;20580;-75
2023/08/11 12:06:06;;;;;;;1.08;0.70;;;27.30;38.20;;;;;;5021523;28;20060;-78
2023/08/11 12:08:34;;;;;;;1.48;0.60;;;27.20;36.30;;;;;;5016845;28;20054;-75
2023/08/11 12:11:04;;;;;;;1.02;0.55;;;27.50;40.80;;;;;;5010844;28;20048;-75
2023/08/11 12:13:31;;;;;;;0.63;0.50;;;27.50;36.50;;;;;;5033197;28;20549;-75
2023/08/11 12:15:59;;;;;;;1.05;0.70;;;27.70;37.60;;;;;;5019975;28;20084;-75
2023/08/11 12:18:29;;;;;;;0.95;0.70;;;28.10;37.20;;;;;;5016865;28;20068;-75
2023/08/11 12:21:00;;;;;;;1.17;0.73;;;28.10;35.50;;;;;;5038784;28;20207;-75
2023/08/11 12:23:27;;;;;;;1.20;0.60;;;28.40;37.40;;;;;;4992905;28;20049;-75
2023/08/11 12:25:54;;;;;;;1.10;0.50;;;28.80;36.40;;;;;;5021904;28;20134;-75
2023/08/11 12:28:21;;;;;;;1.48;0.85;;;28.40;29.40;;;;;;5035047;28;20060;-75
2023/08/11 12:30:48;;;;;;;1.05;0.68;;;27.90;26.60;;;;;;5038163;28;20048;-75
2023/08/11 12:33:15;;;;;;;0.55;0.50;;;27.50;25.80;;;;;;5000180;28;20049;-75
2023/08/11 12:35:43;;;;;;;0.50;0.30;;;27.30;25.90;;;;;;5016052;28;20639;-75
2023/08/11 12:38:12;;;;;;;1.10;0.70;;;27.30;26.40;;;;;;5038230;28;20052;-75
2023/08/11 12:40:40;;;;;;;0.57;0.30;;;27.20;26.40;;;;;;5022326;28;20053;-74
2023/08/11 12:43:08;;;;;;;1.23;0.55;;;27.00;26.30;;;;;;5002943;28;20052;-75
2023/08/11 12:45:40;;;;;;;0.85;0.47;;;26.80;24.90;;;;;;5019500;28;20124;-74
2023/08/11 12:48:07;;;;;;;0.98;0.50;;;26.50;24.10;;;;;;5036227;28;20136;-74
2023/08/11 12:50:36;;;;;;;1.20;0.52;;;26.60;24.70;;;;;;5022673;28;20081;-74